Time;durP1;ratioP1;P1;durP2;ratioP2;P2;SDS_P1;SDS_P2;PMS_P1;PMS_P2;Temp;Humidity;BMP_temperature;BMP_pressure;BME280_temperature;BME280_humidity;BME280_pressure;Samples;Min_cycle;Max_cycle;Signal;HPM_P1;HPM_P2
2022/12/12 00:02:31;;;;;;;0.47;0.47;;;;;;;-5.84;37.31;98427.38;6320053;28;20048;-66
2022/12/12 00:05:33;;;;;;;0.60;0.50;;;;;;;-5.84;38.04;98434.22;6319659;28;20452;-66
2022/12/12 00:08:35;;;;;;;0.40;0.40;;;;;;;-5.94;38.27;98428.91;6320002;28;20082;-66
2022/12/12 00:11:39;;;;;;;0.80;0.75;;;;;;;-5.80;38.33;98415.50;6320094;28;20052;-66
2022/12/12 00:14:45;;;;;;;0.73;0.70;;;;;;;-5.95;38.96;98406.63;6324287;28;20044;-66
2022/12/12 00:17:50;;;;;;;1.40;0.43;;;;;;;-5.87;39.16;98394.84;6325230;28;20048;-66
2022/12/12 00:20:54;;;;;;;0.50;0.50;;;;;;;-6.07;38.78;98385.84;6323977;28;20040;-67
2022/12/12 00:23:56;;;;;;;0.67;0.40;;;;;;;-5.89;38.58;98396.53;6324659;28;20052;-66
2022/12/12 00:26:59;;;;;;;1.80;0.60;;;;;;;-5.90;37.92;98387.09;6324275;28;20446;-67
2022/12/12 00:30:00;;;;;;;0.40;0.40;;;;;;;-5.88;38.17;98429.00;6324997;28;20036;-65
2022/12/12 00:33:09;;;;;;;0.55;0.47;;;;;;;-5.84;38.21;98447.91;6324910;28;20047;-66
2022/12/12 00:36:13;;;;;;;1.65;0.80;;;;;;;-5.89;38.44;98460.63;6325147;28;20044;-66
2022/12/12 00:39:18;;;;;;;0.63;0.60;;;;;;;-5.73;38.18;98435.34;6323772;28;20036;-66
2022/12/12 00:42:26;;;;;;;0.50;0.50;;;;;;;-5.78;38.50;98413.84;6324642;28;20039;-67
2022/12/12 00:45:27;;;;;;;0.45;0.45;;;;;;;-5.89;39.00;98426.41;6323584;28;20040;-66
2022/12/12 00:48:34;;;;;;;1.02;0.70;;;;;;;-5.89;38.95;98417.03;6324477;28;20039;-66
2022/12/12 00:51:38;;;;;;;0.40;0.40;;;;;;;-5.81;39.13;98431.72;6324389;28;20044;-65
2022/12/12 00:54:39;;;;;;;0.57;0.57;;;;;;;-5.71;38.49;98433.69;6324175;28;20543;-67
2022/12/12 00:57:43;;;;;;;1.67;0.70;;;;;;;-5.68;38.39;98426.06;6324342;28;20177;-67
2022/12/12 01:00:44;;;;;;;0.70;0.70;;;;;;;-5.70;39.13;98427.72;6324599;28;20066;-66
2022/12/12 01:03:46;;;;;;;1.13;0.80;;;;;;;-5.76;39.20;98432.72;6323871;28;20048;-67
2022/12/12 01:06:48;;;;;;;1.13;0.77;;;;;;;-5.83;39.99;98425.69;6323694;28;20434;-67
2022/12/12 01:09:52;;;;;;;1.45;0.77;;;;;;;-5.80;39.37;98430.88;6323972;28;20074;-66
2022/12/12 01:12:56;;;;;;;0.88;0.85;;;;;;;-5.68;39.96;98442.31;6323724;28;20051;-66
2022/12/12 01:16:03;;;;;;;1.83;1.02;;;;;;;-5.77;39.83;98446.38;6323947;28;20044;-67
2022/12/12 01:19:09;;;;;;;1.35;0.80;;;;;;;-5.79;39.89;98458.28;6323703;28;20452;-67
2022/12/12 01:22:10;;;;;;;1.85;0.70;;;;;;;-5.67;40.00;98448.31;6323784;28;20048;-68
2022/12/12 01:25:16;;;;;;;0.50;0.50;;;;;;;-5.55;39.54;98456.28;6323987;28;20485;-66
2022/12/12 01:28:20;;;;;;;0.50;0.50;;;;;;;-5.62;39.54;98453.56;6323528;28;20032;-66
2022/12/12 01:31:24;;;;;;;0.85;0.85;;;;;;;-5.56;39.45;98452.00;6323030;28;20533;-66
2022/12/12 01:34:28;;;;;;;0.70;0.55;;;;;;;-5.56;39.20;98452.00;6322984;28;20070;-66
2022/12/12 01:37:31;;;;;;;1.17;0.82;;;;;;;-5.56;39.28;98452.00;6323402;28;20086;-67
2022/12/12 01:40:32;;;;;;;2.10;0.98;;;;;;;-5.56;39.58;98425.50;6323706;28;20043;-67
2022/12/12 01:43:34;;;;;;;0.80;0.80;;;;;;;-5.57;39.60;98434.88;6322936;28;20046;-67
2022/12/12 01:46:44;;;;;;;1.88;1.08;;;;;;;-5.60;39.95;98424.56;6322486;28;20175;-66
2022/12/12 01:49:53;;;;;;;1.52;0.95;;;;;;;-5.59;40.37;98431.41;6323052;28;20363;-66
2022/12/12 01:52:57;;;;;;;0.73;0.70;;;;;;;-5.66;40.48;98419.28;6321462;28;20098;-66
2022/12/12 01:56:06;;;;;;;1.38;0.65;;;;;;;-5.58;39.81;98433.13;6322790;28;20036;-66
2022/12/12 01:59:13;;;;;;;0.60;0.60;;;;;;;-5.61;39.85;98427.94;6322931;28;20040;-67
2022/12/12 02:02:14;;;;;;;0.60;0.60;;;;;;;-5.64;40.41;98427.88;6321964;28;20052;-67
2022/12/12 02:05:27;;;;;;;0.70;0.60;;;;;;;-5.68;39.87;98420.94;6322297;28;20055;-67
2022/12/12 02:08:31;;;;;;;0.75;0.70;;;;;;;-5.70;39.83;98413.19;6322624;28;20181;-67
2022/12/12 02:11:42;;;;;;;0.60;0.60;;;;;;;-5.75;39.78;98406.22;6322226;28;20060;-69
2022/12/12 02:14:51;;;;;;;0.40;0.40;;;;;;;-5.61;39.58;98399.72;6321637;28;20048;-67
2022/12/12 02:18:09;;;;;;;0.60;0.60;;;;;;;-5.65;39.01;98400.50;6322173;28;20036;-67
2022/12/12 02:21:40;;;;;;;1.17;0.90;;;;;;;-5.60;39.43;98393.78;6322400;28;20040;-67
2022/12/12 02:25:05;;;;;;;3.05;0.50;;;;;;;-5.62;38.84;98399.72;6322256;28;20052;-67
2022/12/12 02:28:28;;;;;;;1.48;0.80;;;;;;;-5.73;39.39;98389.19;6321305;28;20052;-67
2022/12/12 02:31:55;;;;;;;0.65;0.50;;;;;;;-5.69;39.29;98393.56;6321985;28;20036;-66
2022/12/12 02:35:32;;;;;;;0.80;0.60;;;;;;;-5.59;39.60;98395.50;6321020;28;20079;-67
2022/12/12 02:39:00;;;;;;;1.23;0.60;;;;;;;-5.68;39.94;98379.91;6321006;28;20054;-67
2022/12/12 02:42:37;;;;;;;1.88;0.70;;;;;;;-5.60;39.00;98385.19;6321614;28;20035;-68
2022/12/12 02:45:44;;;;;;;0.60;0.50;;;;;;;-5.61;39.16;98371.53;6221601;28;20567;-67
2022/12/12 02:49:03;;;;;;;1.95;0.63;;;;;;;-5.38;38.77;98369.47;6320838;28;20048;-67
2022/12/12 02:52:10;;;;;;;1.52;0.90;;;;;;;-5.56;38.71;98375.06;6321203;28;20077;-67
2022/12/12 02:55:14;;;;;;;1.13;0.93;;;;;;;-5.68;38.88;98374.78;6320997;28;20055;-67
2022/12/12 02:58:20;;;;;;;3.33;1.00;;;;;;;-5.67;39.07;98397.03;6321122;28;20058;-68
2022/12/12 03:01:51;;;;;;;1.10;0.77;;;;;;;-5.68;39.86;98398.72;6320902;28;20562;-66
2022/12/12 03:08:58;;;;;;;1.40;0.70;;;;;;;-5.91;40.49;98393.06;6321102;28;20044;-67
2022/12/12 03:12:12;;;;;;;;;;;;;;;-5.91;40.65;98393.06;6321328;28;20068;-66
2022/12/12 03:15:35;;;;;;;0.60;0.60;;;;;;;-5.92;40.95;98393.00;6320928;28;19920;-66
2022/12/12 03:18:54;;;;;;;1.02;0.43;;;;;;;-6.03;41.25;98382.50;6321003;28;20485;-67
2022/12/12 03:22:11;;;;;;;1.65;0.80;;;;;;;-5.87;41.34;98388.88;6320286;28;20052;-66
2022/12/12 03:25:26;;;;;;;0.50;0.50;;;;;;;-5.82;41.20;98391.53;6319999;28;20105;-66
2022/12/12 03:28:43;;;;;;;0.65;0.50;;;;;;;-5.84;40.95;98403.44;6320904;28;20036;-67
2022/12/12 03:31:58;;;;;;;1.40;0.93;;;;;;;-5.92;40.67;98416.06;6320947;28;20067;-67
2022/12/12 03:35:09;;;;;;;1.27;0.98;;;;;;;-5.61;39.64;98422.81;6320378;28;20538;-67
2022/12/12 03:38:21;;;;;;;1.52;1.00;;;;;;;-5.91;40.40;98418.69;6320715;28;20048;-67
2022/12/12 03:41:35;;;;;;;1.20;0.77;;;;;;;-5.73;39.89;98417.41;6320776;28;20044;-67
2022/12/12 03:44:54;;;;;;;1.05;0.70;;;;;;;-5.79;39.59;98389.06;6319470;28;20043;-66
2022/12/12 03:48:11;;;;;;;3.70;0.98;;;;;;;-5.85;38.68;98401.72;6321293;28;20040;-67
2022/12/12 03:51:26;;;;;;;1.85;0.82;;;;;;;-5.86;39.01;98405.97;6325401;28;20537;-66
2022/12/12 03:54:35;;;;;;;1.45;0.90;;;;;;;-5.89;38.89;98417.03;6325469;28;20373;-68
2022/12/12 03:57:58;;;;;;;0.77;0.70;;;;;;;-5.79;38.98;98407.00;6325044;28;20143;-66
2022/12/12 04:01:07;;;;;;;1.10;0.70;;;;;;;-5.88;38.55;98413.63;6325629;28;20117;-67
2022/12/12 04:04:33;;;;;;;1.63;0.70;;;;;;;-5.67;38.33;98402.16;6325505;28;20036;-66
2022/12/12 04:07:44;;;;;;;0.75;0.63;;;;;;;-5.72;38.81;98398.59;6325656;28;20040;-67
2022/12/12 04:14:40;;;;;;;;;;;;;;;-5.98;39.37;98386.06;6325839;28;20059;-67
2022/12/12 04:18:07;;;;;;;1.30;0.88;;;;;;;-5.99;39.44;98376.66;6325106;28;19920;-67
2022/12/12 04:25:03;;;;;;;0.68;0.57;;;;;;;-5.66;38.49;98374.00;6324419;28;20043;-67
2022/12/12 04:28:07;;;;;;;0.88;0.50;;;;;;;-5.59;38.32;98367.31;6323682;28;20063;-66
2022/12/12 04:31:12;;;;;;;0.55;0.55;;;;;;;-5.55;38.98;98381.06;6322948;28;20056;-67
2022/12/12 04:34:49;;;;;;;0.80;0.80;;;;;;;-5.35;38.43;98373.81;6324437;28;20051;-66
2022/12/12 04:37:56;;;;;;;0.60;0.60;;;;;;;-5.33;38.08;98361.88;6324610;28;20173;-65
2022/12/12 04:41:03;;;;;;;0.63;0.63;;;;;;;-5.66;38.48;98352.63;6324559;28;20043;-66
2022/12/12 04:44:13;;;;;;;1.20;1.00;;;;;;;-5.49;38.53;98371.81;6323417;28;20044;-68
2022/12/12 04:47:19;;;;;;;0.80;0.80;;;;;;;-5.40;38.26;98375.44;6324477;28;20426;-67
2022/12/12 04:50:24;;;;;;;0.95;0.80;;;;;;;-5.25;38.34;98365.47;6324206;28;20044;-67
2022/12/12 04:53:38;;;;;;;0.63;0.60;;;;;;;-5.28;37.69;98355.16;6324101;28;20051;-67
2022/12/12 04:56:43;;;;;;;1.25;0.73;;;;;;;-5.29;38.10;98353.44;6324230;28;20032;-67
2022/12/12 04:59:52;;;;;;;0.60;0.47;;;;;;;-5.25;37.99;98375.75;6323805;28;20040;-67
2022/12/12 05:03:12;;;;;;;1.48;0.63;;;;;;;-5.46;38.73;98374.44;6324366;28;20044;-67
2022/12/12 05:06:25;;;;;;;0.77;0.77;;;;;;;-5.19;38.49;98373.31;6324116;28;20052;-66
2022/12/12 05:09:32;;;;;;;0.73;0.60;;;;;;;-5.16;38.05;98370.81;6324052;28;20044;-67
2022/12/12 05:12:41;;;;;;;0.85;0.70;;;;;;;-5.12;38.99;98367.50;6323514;28;20510;-67
2022/12/12 05:15:43;;;;;;;1.63;0.90;;;;;;;-5.17;39.55;98376.78;6323969;28;20097;-67
2022/12/12 05:18:45;;;;;;;1.70;0.90;;;;;;;-5.16;39.19;98364.81;6323525;28;20390;-67
2022/12/12 05:21:46;;;;;;;3.20;1.65;;;;;;;-5.07;38.95;98359.88;6323575;28;20043;-68
2022/12/12 05:24:47;;;;;;;2.22;0.88;;;;;;;-4.87;38.31;98370.53;6323688;28;20035;-67
2022/12/12 05:27:52;;;;;;;1.75;1.05;;;;;;;-4.71;38.59;98372.56;6323371;28;20179;-67
2022/12/12 05:30:58;;;;;;;2.53;1.60;;;;;;;-4.71;38.51;98377.72;6323099;28;20413;-66
2022/12/12 05:34:05;;;;;;;2.58;0.80;;;;;;;-4.52;38.72;98387.50;6323491;28;20044;-68
2022/12/12 05:37:11;;;;;;;1.55;1.15;;;;;;;-4.58;38.91;98397.66;6323094;28;20040;-67
2022/12/12 05:40:15;;;;;;;3.28;1.67;;;;;;;-4.65;39.52;98390.66;6322829;28;20130;-67
2022/12/12 05:43:19;;;;;;;1.90;1.17;;;;;;;-4.54;39.52;98378.91;6322148;28;20055;-66
2022/12/12 05:46:23;;;;;;;4.28;1.40;;;;;;;-4.41;38.82;98374.00;6323193;28;20489;-67
2022/12/12 05:49:27;;;;;;;2.17;1.27;;;;;;;-4.24;38.72;98372.59;6322218;28;20052;-66
2022/12/12 05:52:31;;;;;;;3.75;1.75;;;;;;;-4.12;38.20;98377.94;6322523;28;20452;-66
2022/12/12 05:55:36;;;;;;;2.67;1.50;;;;;;;-4.08;38.36;98381.44;6322829;28;20048;-67
2022/12/12 05:58:40;;;;;;;1.55;1.00;;;;;;;-4.04;38.15;98382.38;6322155;28;20189;-67
2022/12/12 06:01:44;;;;;;;2.70;1.60;;;;;;;-3.77;37.60;98377.66;6322378;28;20401;-67
2022/12/12 06:04:45;;;;;;;3.42;1.50;;;;;;;-3.74;37.01;98382.84;6321965;28;20039;-66
2022/12/12 06:07:50;;;;;;;1.35;1.00;;;;;;;-3.62;36.55;98369.34;6322325;28;20520;-66
2022/12/12 06:10:57;;;;;;;2.88;1.80;;;;;;;-3.66;36.41;98375.25;6321445;28;20088;-67
2022/12/12 06:14:05;;;;;;;1.35;0.90;;;;;;;-3.68;36.77;98372.69;6322011;28;20040;-66
2022/12/12 06:17:09;;;;;;;1.15;1.05;;;;;;;-3.53;36.01;98363.47;6321593;28;20047;-67
2022/12/12 06:20:10;;;;;;;5.72;1.80;;;;;;;-3.53;35.83;98373.75;6321236;28;20040;-66
2022/12/12 06:23:17;;;;;;;7.20;2.42;;;;;;;-3.52;35.87;98372.91;6322088;28;20055;-66
2022/12/12 06:26:21;;;;;;;2.17;1.15;;;;;;;-3.46;35.40;98372.97;6321711;28;20413;-66
2022/12/12 06:29:26;;;;;;;1.65;0.70;;;;;;;-3.49;35.67;98367.78;6321734;28;20122;-66
2022/12/12 06:32:31;;;;;;;1.25;0.90;;;;;;;-3.30;35.56;98377.50;6321699;28;20052;-67
2022/12/12 06:35:32;;;;;;;0.90;0.70;;;;;;;-3.30;35.01;98369.78;6321657;28;20414;-67
2022/12/12 06:38:40;;;;;;;0.50;0.50;;;;;;;-3.35;35.49;98379.16;6321883;28;20039;-67
2022/12/12 06:41:44;;;;;;;0.70;0.70;;;;;;;-3.31;35.90;98375.78;6321441;28;20426;-67
2022/12/12 06:44:48;;;;;;;1.38;0.88;;;;;;;-3.21;36.15;98382.78;6321515;28;20068;-67
2022/12/12 06:47:50;;;;;;;0.50;0.43;;;;;;;-3.07;36.20;98389.84;6320697;28;20054;-68
2022/12/12 06:50:54;;;;;;;0.80;0.60;;;;;;;-2.96;36.38;98389.13;6321098;28;20405;-66
2022/12/12 06:53:55;;;;;;;0.77;0.65;;;;;;;-3.05;36.94;98377.84;6320650;28;20079;-67
2022/12/12 06:57:01;;;;;;;2.03;1.08;;;;;;;-2.87;36.59;98378.06;6320978;28;20131;-67
2022/12/12 07:00:03;;;;;;;1.52;0.90;;;;;;;-2.70;36.14;98373.13;6319625;28;20048;-67
2022/12/12 07:03:08;;;;;;;;;;;;;;;-2.57;35.86;98369.00;6320300;28;20079;-67
2022/12/12 07:06:09;;;;;;;1.67;1.00;;;;;;;-2.49;34.91;98369.94;6320135;28;19920;-66
2022/12/12 07:09:10;;;;;;;2.33;1.63;;;;;;;-2.44;34.63;98365.69;6321171;28;20609;-68
2022/12/12 07:12:12;;;;;;;2.55;1.40;;;;;;;-2.40;34.15;98364.88;6321006;28;20036;-66
2022/12/12 07:15:16;;;;;;;2.28;1.25;;;;;;;-2.28;33.10;98362.41;6321176;28;20044;-67
2022/12/12 07:18:25;;;;;;;2.67;1.17;;;;;;;-2.31;33.32;98359.81;6321167;28;20135;-67
2022/12/12 07:21:31;;;;;;;1.42;1.00;;;;;;;-2.19;33.36;98355.63;6320657;28;20114;-67
2022/12/12 07:24:37;;;;;;;1.80;1.05;;;;;;;-2.26;33.49;98352.13;6321016;28;20052;-67
2022/12/12 07:27:41;;;;;;;1.88;0.93;;;;;;;-2.29;33.20;98358.13;6320763;28;20050;-66
2022/12/12 07:30:48;;;;;;;1.45;0.88;;;;;;;-2.17;32.76;98356.50;6320535;28;20524;-67
2022/12/12 07:33:55;;;;;;;2.65;1.13;;;;;;;-2.29;33.66;98371.00;6320806;28;20052;-67
2022/12/12 07:37:03;;;;;;;1.67;0.65;;;;;;;-2.20;33.78;98359.06;6320817;28;20048;-67
2022/12/12 07:40:06;;;;;;;2.20;0.88;;;;;;;-2.03;33.50;98360.94;6320895;28;20048;-67
2022/12/12 07:43:10;;;;;;;1.73;1.10;;;;;;;-2.07;33.90;98350.56;6320716;28;20040;-67
2022/12/12 07:46:23;;;;;;;2.47;0.75;;;;;;;-2.19;34.58;98337.56;6320719;28;20058;-67
2022/12/12 07:49:31;;;;;;;1.33;1.00;;;;;;;-2.08;34.06;98352.28;6320680;28;20040;-66
2022/12/12 07:52:38;;;;;;;2.15;0.90;;;;;;;-2.20;33.85;98341.00;6320545;28;20515;-67
2022/12/12 07:55:42;;;;;;;0.80;0.70;;;;;;;-2.19;33.61;98342.72;6320410;28;20056;-68
2022/12/12 07:58:50;;;;;;;0.85;0.75;;;;;;;-2.12;33.79;98334.22;6320419;28;20044;-66
2022/12/12 08:01:56;;;;;;;0.88;0.63;;;;;;;-2.24;33.62;98334.09;6320336;28;20040;-68
2022/12/12 08:04:58;;;;;;;2.85;0.65;;;;;;;-2.21;33.66;98367.63;6320225;28;20051;-66
2022/12/12 08:08:04;;;;;;;1.15;0.82;;;;;;;-2.13;33.32;98342.78;6320338;28;20417;-66
2022/12/12 08:11:10;;;;;;;0.70;0.40;;;;;;;-2.15;32.46;98355.69;6317798;28;20058;-67
2022/12/12 08:14:14;;;;;;;0.47;0.38;;;;;;;-2.08;32.19;98346.28;6318331;28;20044;-66
2022/12/12 08:17:20;;;;;;;;;;;;;;;-2.16;32.38;98363.38;6318728;28;20043;-66
2022/12/12 08:20:23;;;;;;;0.90;0.70;;;;;;;-2.13;31.93;98337.63;6320180;28;19919;-67
2022/12/12 08:23:31;;;;;;;0.77;0.75;;;;;;;-2.29;32.33;98337.50;6320131;28;20047;-66
2022/12/12 08:26:35;;;;;;;2.10;1.38;;;;;;;-2.18;32.51;98339.28;6320193;28;20076;-68
2022/12/12 08:29:41;;;;;;;2.08;1.50;;;;;;;-2.39;32.87;98351.13;6320146;28;20036;-67
2022/12/12 08:32:48;;;;;;;5.03;2.63;;;;;;;-2.35;32.95;98358.06;6319888;28;20131;-66
2022/12/12 08:35:55;;;;;;;3.40;1.55;;;;;;;-2.29;32.60;98345.22;6324044;28;20110;-66
2022/12/12 08:39:07;;;;;;;;;;;;;;;-2.11;32.73;98347.09;6325068;28;20074;-66
2022/12/12 08:42:12;;;;;;;1.10;0.90;;;;;;;-2.31;33.13;98336.59;6324767;28;20377;-66
2022/12/12 08:45:15;;;;;;;1.13;0.60;;;;;;;-2.25;32.96;98338.38;6324285;28;20044;-66
2022/12/12 08:48:20;;;;;;;1.67;0.98;;;;;;;-2.13;32.99;98347.94;6324357;28;20117;-66
2022/12/12 08:51:24;;;;;;;1.25;0.70;;;;;;;-2.23;32.83;98341.00;6324020;28;20040;-67
2022/12/12 08:54:31;;;;;;;0.40;0.40;;;;;;;-2.13;32.86;98332.47;6324155;28;20056;-66
2022/12/12 08:57:35;;;;;;;0.90;0.40;;;;;;;-2.16;32.58;98322.13;6324192;28;20040;-67
2022/12/12 09:00:42;;;;;;;0.43;0.43;;;;;;;-2.08;32.71;98325.63;6324479;28;20067;-67
2022/12/12 09:03:45;;;;;;;0.52;0.50;;;;;;;-2.04;32.75;98323.13;6323851;28;20418;-67
2022/12/12 09:06:49;;;;;;;2.22;0.60;;;;;;;-2.00;32.44;98338.59;6324066;28;20406;-67
2022/12/12 09:09:51;;;;;;;1.52;0.70;;;;;;;-2.01;32.64;98324.81;6323893;28;20528;-68
2022/12/12 09:12:56;;;;;;;1.10;0.60;;;;;;;-1.89;32.54;98313.75;6323361;28;20048;-67
2022/12/12 09:16:00;;;;;;;0.70;0.60;;;;;;;-1.89;32.39;98331.81;6323356;28;20079;-67
2022/12/12 09:19:06;;;;;;;0.82;0.82;;;;;;;-1.79;32.87;98322.41;6323788;28;20043;-67
2022/12/12 09:22:09;;;;;;;0.85;0.65;;;;;;;-1.91;33.63;98313.75;6323742;28;20040;-67
2022/12/12 09:25:13;;;;;;;0.60;0.60;;;;;;;-1.98;33.89;98330.03;6323184;28;20514;-67
2022/12/12 09:28:21;;;;;;;1.95;0.50;;;;;;;-2.08;34.04;98318.75;6323377;28;20036;-67
2022/12/12 09:31:27;;;;;;;0.50;0.40;;;;;;;-2.01;34.12;98335.13;6323402;28;20131;-67
2022/12/12 09:34:39;;;;;;;2.00;0.98;;;;;;;-2.20;34.36;98336.72;6323147;28;20055;-68
2022/12/12 09:37:43;;;;;;;2.30;1.27;;;;;;;-2.11;33.70;98343.66;6323323;28;20043;-68
2022/12/12 09:40:54;;;;;;;1.70;1.00;;;;;;;-2.17;33.97;98346.19;6322979;28;20489;-68
2022/12/12 09:44:05;;;;;;;1.30;0.77;;;;;;;-2.10;33.51;98355.69;6322919;28;20044;-70
2022/12/12 09:47:19;;;;;;;0.57;0.52;;;;;;;-2.13;33.37;98350.53;6321771;28;20425;-68
2022/12/12 09:50:36;;;;;;;1.40;0.77;;;;;;;-1.93;32.16;98359.28;6322416;28;20181;-67
2022/12/12 09:53:40;;;;;;;1.33;0.80;;;;;;;-2.11;32.36;98353.97;6321216;28;20140;-67
2022/12/12 09:56:57;;;;;;;2.28;0.60;;;;;;;-2.06;32.15;98354.91;6322822;28;20043;-67
2022/12/12 10:00:11;;;;;;;1.10;1.00;;;;;;;-2.13;32.45;98359.13;6322461;28;20488;-68
2022/12/12 10:03:40;;;;;;;3.72;0.98;;;;;;;-2.19;32.61;98347.88;6322624;28;20453;-67
2022/12/12 10:06:57;;;;;;;1.60;0.98;;;;;;;-2.38;33.04;98333.94;6322479;28;20052;-67
2022/12/12 10:10:11;;;;;;;1.85;1.38;;;;;;;-2.27;33.27;98348.66;6322093;28;20055;-67
2022/12/12 10:13:32;;;;;;;0.80;0.60;;;;;;;-2.42;33.44;98355.41;6322253;28;20036;-67
2022/12/12 10:16:34;;;;;;;1.35;0.80;;;;;;;-2.40;32.81;98359.72;6321423;28;20052;-67
2022/12/12 10:19:47;;;;;;;0.98;0.70;;;;;;;-2.52;33.46;98367.31;6321393;28;20505;-66
2022/12/12 10:23:09;;;;;;;0.75;0.52;;;;;;;-2.44;33.21;98365.69;6321618;28;20067;-67
2022/12/12 10:26:20;;;;;;;1.85;0.60;;;;;;;-2.51;33.46;98361.31;6322264;28;20051;-67
2022/12/12 10:29:25;;;;;;;0.82;0.50;;;;;;;-2.54;33.36;98361.28;6322185;28;20044;-68
2022/12/12 10:32:40;;;;;;;2.90;1.70;;;;;;;-2.49;33.04;98351.91;6321734;28;20036;-67
2022/12/12 10:36:01;;;;;;;1.40;0.73;;;;;;;-2.68;33.58;98361.13;6321832;28;20092;-68
2022/12/12 10:39:36;;;;;;;1.05;0.63;;;;;;;-2.59;33.63;98362.94;6321875;28;20044;-67
2022/12/12 10:42:45;;;;;;;1.58;0.90;;;;;;;-2.56;33.38;98352.69;6310334;28;20121;-68
2022/12/12 10:46:09;;;;;;;1.48;0.65;;;;;;;-2.53;33.34;98363.00;6321766;28;20044;-67
2022/12/12 10:49:17;;;;;;;1.20;0.52;;;;;;;-2.52;33.43;98354.41;6320790;28;20040;-68
2022/12/12 10:52:21;;;;;;;0.60;0.60;;;;;;;-2.80;33.93;98348.09;6321417;28;20422;-67
2022/12/12 10:55:54;;;;;;;0.70;0.60;;;;;;;-2.76;33.48;98345.59;6321325;28;20048;-68
2022/12/12 10:59:01;;;;;;;0.40;0.30;;;;;;;-2.77;32.75;98328.41;6320926;28;20039;-67
2022/12/12 11:02:03;;;;;;;0.75;0.40;;;;;;;-2.82;32.80;98335.22;6321148;28;20036;-67
2022/12/12 11:05:04;;;;;;;1.80;0.70;;;;;;;-2.93;33.00;98331.66;6320890;28;20624;-68
2022/12/12 11:08:26;;;;;;;1.08;0.60;;;;;;;-3.12;33.10;98329.69;6321289;28;20093;-68
2022/12/12 11:11:30;;;;;;;0.98;0.82;;;;;;;-3.03;32.89;98340.97;6320191;28;20063;-67
2022/12/12 11:14:33;;;;;;;0.47;0.47;;;;;;;-3.27;33.64;98344.09;6320032;28;20138;-67
2022/12/12 11:17:38;;;;;;;1.23;0.80;;;;;;;-3.37;33.37;98329.34;6320830;28;20039;-68
2022/12/12 11:21:09;;;;;;;0.50;0.50;;;;;;;-3.31;33.31;98332.03;6320947;28;20039;-67
2022/12/12 11:24:22;;;;;;;2.08;0.82;;;;;;;-3.38;33.17;98340.50;6320852;28;20130;-67
2022/12/12 11:27:33;;;;;;;0.77;0.55;;;;;;;-3.36;31.97;98336.25;6320823;28;20044;-66
2022/12/12 11:30:45;;;;;;;0.82;0.73;;;;;;;-3.40;31.61;98319.91;6320848;28;20040;-67
2022/12/12 11:33:55;;;;;;;1.17;0.45;;;;;;;-3.51;31.61;98334.34;6320890;28;20493;-67
2022/12/12 11:37:02;;;;;;;0.32;0.32;;;;;;;-3.61;31.36;98329.91;6321107;28;20040;-67
2022/12/12 11:40:27;;;;;;;0.55;0.40;;;;;;;-3.75;31.56;98333.97;6320552;28;20044;-67
2022/12/12 11:43:45;;;;;;;2.22;0.40;;;;;;;-3.75;31.85;98342.53;6319794;28;20055;-67
2022/12/12 11:46:52;;;;;;;0.50;0.50;;;;;;;-3.93;31.58;98327.69;6320841;28;20070;-68
2022/12/12 11:49:57;;;;;;;0.70;0.70;;;;;;;-4.08;31.95;98332.59;6320532;28;20044;-67
2022/12/12 11:53:01;;;;;;;0.70;0.70;;;;;;;-4.25;32.34;98349.44;6319800;28;20421;-68
2022/12/12 11:56:26;;;;;;;1.02;0.47;;;;;;;-4.35;32.19;98330.44;6319734;28;20056;-67
2022/12/12 11:59:55;;;;;;;0.50;0.50;;;;;;;-4.35;32.00;98333.84;6320493;28;20040;-68
2022/12/12 12:03:22;;;;;;;0.60;0.60;;;;;;;-4.18;31.07;98341.88;6319931;28;20044;-66
2022/12/12 12:06:46;;;;;;;0.80;0.80;;;;;;;-4.35;31.45;98323.59;6320245;28;20552;-66
2022/12/12 12:09:52;;;;;;;1.45;1.10;;;;;;;-4.50;31.49;98336.16;6322666;28;20044;-67
2022/12/12 12:13:15;;;;;;;0.70;0.70;;;;;;;-4.55;31.57;98328.38;6325023;28;20048;-67
2022/12/12 12:16:40;;;;;;;0.80;0.70;;;;;;;-4.66;31.23;98301.63;6325050;28;20051;-68
2022/12/12 12:19:47;;;;;;;1.40;0.55;;;;;;;-4.61;31.70;98310.28;6324898;28;20043;-67
2022/12/12 12:22:51;;;;;;;0.50;0.50;;;;;;;-4.58;31.48;98309.47;6324441;28;20040;-68
2022/12/12 12:26:17;;;;;;;0.38;0.38;;;;;;;-4.61;31.24;98320.56;6325177;28;20035;-67
2022/12/12 12:29:30;;;;;;;0.40;0.40;;;;;;;-4.57;31.98;98314.63;6323833;28;20036;-67
2022/12/12 12:32:55;;;;;;;0.40;0.40;;;;;;;-4.58;31.67;98319.75;6324880;28;20040;-67
2022/12/12 12:36:32;;;;;;;0.52;0.52;;;;;;;-4.37;31.53;98319.25;6324751;28;20048;-68
2022/12/12 12:39:51;;;;;;;0.50;0.38;;;;;;;-4.59;31.79;98324.00;6324420;28;20508;-67
2022/12/12 12:43:01;;;;;;;0.75;0.40;;;;;;;-4.66;31.58;98324.75;6324505;28;20043;-66
2022/12/12 12:46:20;;;;;;;0.47;0.47;;;;;;;-4.72;32.29;98316.06;6324318;28;20044;-67
2022/12/12 12:49:26;;;;;;;0.60;0.60;;;;;;;-4.64;32.22;98315.38;6324315;28;20036;-66
2022/12/12 12:52:39;;;;;;;0.40;0.40;;;;;;;-4.74;32.13;98313.47;6324143;28;20040;-67
2022/12/12 12:55:50;;;;;;;0.93;0.77;;;;;;;-4.85;32.88;98320.09;6323522;28;20151;-68
2022/12/12 12:59:02;;;;;;;0.73;0.63;;;;;;;-4.78;32.72;98317.69;6321833;28;20059;-67
2022/12/12 13:02:23;;;;;;;1.55;0.65;;;;;;;-4.89;32.95;98315.75;6322431;28;20066;-67
2022/12/12 13:05:39;;;;;;;0.43;0.43;;;;;;;-4.70;33.50;98310.09;6323879;28;20048;-66
2022/12/12 13:09:08;;;;;;;0.90;0.60;;;;;;;-4.70;33.71;98293.81;6323267;28;20094;-67
2022/12/12 13:12:25;;;;;;;0.65;0.50;;;;;;;-4.78;33.94;98306.53;6323857;28;20071;-67
2022/12/12 13:15:43;;;;;;;2.00;0.65;;;;;;;-4.68;34.62;98302.44;6323233;28;20531;-68
2022/12/12 13:19:03;;;;;;;0.40;0.40;;;;;;;-4.63;34.48;98301.69;6323447;28;20421;-67
2022/12/12 13:22:21;;;;;;;0.60;0.60;;;;;;;-4.56;34.74;98300.97;6322644;28;20051;-67
2022/12/12 13:25:39;;;;;;;0.85;0.57;;;;;;;-4.51;35.26;98301.03;6323597;28;20055;-67
2022/12/12 13:29:01;;;;;;;1.08;0.70;;;;;;;-4.65;35.43;98300.78;6323612;28;20493;-67
2022/12/12 13:32:17;;;;;;;1.75;0.82;;;;;;;-4.64;35.91;98314.47;6323325;28;20032;-67
2022/12/12 13:35:44;;;;;;;1.88;0.80;;;;;;;-4.87;37.06;98316.63;6323181;28;20058;-67
2022/12/12 13:38:52;;;;;;;1.73;0.88;;;;;;;-5.09;37.47;98302.53;6322775;28;20063;-68
2022/12/12 13:42:04;;;;;;;1.02;0.77;;;;;;;-4.96;37.27;98304.47;6322602;28;20135;-67
2022/12/12 13:45:33;;;;;;;0.50;0.50;;;;;;;-4.84;37.79;98306.41;6322558;28;20385;-67
2022/12/12 13:48:44;;;;;;;0.52;0.52;;;;;;;-4.99;38.65;98300.16;6322564;28;20043;-68
2022/12/12 13:51:51;;;;;;;2.10;0.55;;;;;;;-5.04;38.50;98319.75;6322918;28;20044;-67
2022/12/12 13:55:20;;;;;;;1.10;0.60;;;;;;;-4.82;38.47;98320.16;6322734;28;20083;-67
2022/12/12 13:58:35;;;;;;;1.27;0.75;;;;;;;-4.94;38.62;98314.78;6312648;28;20051;-68
2022/12/12 14:01:39;;;;;;;0.85;0.70;;;;;;;-4.87;39.01;98306.34;6322085;28;20055;-67
2022/12/12 14:04:43;;;;;;;1.05;0.60;;;;;;;-5.01;38.96;98311.22;6322270;28;20055;-68
2022/12/12 14:07:52;;;;;;;0.47;0.47;;;;;;;-5.04;39.37;98309.47;6322587;28;20109;-67
2022/12/12 14:11:08;;;;;;;0.63;0.63;;;;;;;-5.02;39.25;98322.31;6322629;28;20490;-68
2022/12/12 14:14:20;;;;;;;0.70;0.70;;;;;;;-4.97;39.15;98316.44;6322141;28;20036;-67
2022/12/12 14:17:29;;;;;;;0.63;0.63;;;;;;;-4.78;38.38;98332.22;6322243;28;20044;-68
2022/12/12 14:20:40;;;;;;;0.40;0.40;;;;;;;-4.83;38.44;98328.69;6322225;28;20043;-67
2022/12/12 14:23:47;;;;;;;0.60;0.60;;;;;;;-4.95;38.85;98334.47;6321625;28;20533;-68
2022/12/12 14:26:50;;;;;;;0.43;0.43;;;;;;;-5.38;39.52;98348.09;6321912;28;20544;-67
2022/12/12 14:29:54;;;;;;;0.60;0.60;;;;;;;-5.21;39.55;98341.59;6321682;28;20418;-67
2022/12/12 14:33:01;;;;;;;0.90;0.77;;;;;;;-5.31;39.36;98329.44;6321057;28;20036;-68
2022/12/12 14:36:24;;;;;;;1.88;1.52;;;;;;;-5.42;39.30;98340.31;6321396;28;20048;-68
2022/12/12 14:39:59;;;;;;;2.88;1.60;;;;;;;-5.69;39.81;98347.41;6321622;28;20484;-68
2022/12/12 14:43:21;;;;;;;2.75;1.52;;;;;;;-5.87;40.48;98348.72;6319842;28;20043;-66
2022/12/12 14:46:30;;;;;;;1.58;1.17;;;;;;;-6.09;39.53;98351.63;6320756;28;20059;-68
2022/12/12 14:49:32;;;;;;;1.00;0.93;;;;;;;-6.20;39.74;98342.81;6321494;28;20043;-67
2022/12/12 14:52:36;;;;;;;1.23;1.13;;;;;;;-6.28;40.20;98334.06;6321058;28;20502;-68
2022/12/12 14:55:46;;;;;;;3.42;1.60;;;;;;;-6.49;40.22;98340.38;6321089;28;20193;-68
2022/12/12 14:58:55;;;;;;;2.55;1.63;;;;;;;-6.57;41.02;98342.75;6321163;28;20039;-68
2022/12/12 15:02:15;;;;;;;1.48;1.23;;;;;;;-6.60;41.30;98341.78;6321451;28;20414;-68
2022/12/12 15:05:20;;;;;;;1.38;1.02;;;;;;;-6.79;41.50;98340.47;6320490;28;20046;-68
2022/12/12 15:08:25;;;;;;;0.90;0.90;;;;;;;-6.98;41.13;98339.09;6320191;28;20087;-67